Anita, Iowa
Current Conditions -  °F | °C
As of 10:35 AM on Saturday 22 Nov 2014 (Local Time) from KAIO Reporting Station
Haze Haze  
Wind Chill:   Ceiling: 300
Heat Index:   Visibility: 1.2mi
Dew Point:   Wind: 16mph
Humidity: 100%   Direction: 190°S
Pressure: 29.84"   Gusts: 23mph
Location:  41.45°N, 94.76°W
Report Text: KAIO 221635Z AUTO 19014G20KT 1 1/4SM BR OVC003 05/05 A2984 RMK AO2
Loading
Personal Weather Stations






























Interactive Weather Map New forecast layout! Learn more

10-Day Weather Forecast

Advertisements
Track Severe Weather on mobile